メインページ
METAR-TAF:

METAR-TAF

空港 :

田辺, 日本

南紀白浜空港

緯度: 33-44N, 経度: 135-23E, 海抜: 105m

現時点の気象観測

当レポートは1時間0分前の23:00(UTC)に作成
北東の風 3kt、から東/北東の間で変化する
気温 6°C
湿度 45%
気圧 1022 hPa
視程10km以上
高度4000ftの雲はほとんどない
高度13000ftの千切れ雲あり

METAR: RJBD 182300Z 04003KT 360V070 9999 FEW040 BKN130 06/M05 Q1022

時間: 09:00 (00:00 UTC)


TAF: 見つかりません

4,000以上の空港の気象観測と天気予報(METAR報とTAF報)

利用可能な観測所は地図上に黄色い丸と赤い丸で示す。

丸の上にカーソルを重ねると観測所名を参照できる。

次にクリックすると気象観測と天気予報を参照できる。

マップの切り替え:黒色「×」印の緑ボタンをクリックして拡大、「-」印の緑ボタンをクリックして縮小、緑色の三角印をクリックして隣りの地図に切り替え


METAR-TAF: